Los Altos Hills, CA

5:12 AM PST on February 12, 2016 (GMT -0800)
Los Altos Hills | | Change Station
CLOSE
Current Station
Personal Weather Station
Location: Los Altos Hills, CA
Elevation: 600 ft
Nearby Weather Stations

Elev 600 ft 37.35 °N, 122.13 °W | Updated 11 seconds ago

Partly Cloudy
Partly Cloudy
58.8 °F
Feels Like 58.8 °F
N
0.0
Wind Variable Wind from SW
Gusts 0.0 mph

Today
High -- | Low -- °F
--% Chance of Precip.
Yesterday
High -- | Low -- °F
Precip. -- in
Pressure 30.20 in
Visibility 10.0 miles
Clouds Clear
Dew Point 43 °F
Humidity 56%
Rainfall 0.00 in
Snow Depth Not available.
7:01 AM 5:44 PM
Waxing Crescent, 20% visible
METAR KNUQ 121256Z 00000KT 10SM CLR 10/08 A3019 RMK AO2 SLP227 T01000083
Pressure 30.20 in
Visibility 10.0 miles
Clouds Clear
Dew Point 43 °F
Humidity 56%
Rainfall 0.00 in
Snow Depth Not available.
7:01 AM 5:44 PM
Waxing Crescent, 20% visible
METAR KNUQ 121256Z 00000KT 10SM CLR 10/08 A3019 RMK AO2 SLP227 T01000083

10-Day Weather Forecast

Almanac

Astronomy

Feb. 12, 2016 Rise Set
Actual Time
Civil Twilight
Nautical Twilight
Astronomical Twilight
Moon
Length of Visible Light
Length of Day
Tomorrow will be .
, % of the Moon is Illuminated

Today's Extremes

State Highs State Lows

Community

WunderPhotos

Upload Photos

1,892,309 photos uploaded!

WunderBlog® & News

Nearby

Air Quality

  Air Quality AQ Index Pollutant
Not available.

Snow Depth

Station Depth Elevation

Earthquake Activity

City Distance Mag. Time & Date
Minimum magnitude displayed is 2.5.

Coastal Water Temperatures

Place Temperature

Stations

Nearby Weather Stations

Station Location Temp. Windchill Dew Point Humidity Wind Precip. Elev Updated Type
                   

Watches & Warnings

There are currently no watches in effect.